createdAt,value
2022-11-25T00:02:45.696Z,100261.47
2022-11-25T00:05:48.955Z,100267.03
2022-11-25T00:09:00.115Z,100269.56
2022-11-25T00:12:03.049Z,100264.66
2022-11-25T00:15:06.053Z,100264.09
2022-11-25T00:18:09.180Z,100268.22
2022-11-25T00:21:15.030Z,100272.84
2022-11-25T00:24:17.997Z,100272.97
2022-11-25T00:27:20.753Z,100271.69
2022-11-25T00:30:23.765Z,100268.63
2022-11-25T00:33:26.421Z,100269.09
2022-11-25T00:36:35.451Z,100275.75
2022-11-25T00:39:38.651Z,100277.00
2022-11-25T00:43:00.217Z,100278.84
2022-11-25T00:46:02.932Z,100278.16
2022-11-25T00:49:06.063Z,100300.03
2022-11-25T00:52:10.257Z,100302.06
2022-11-25T00:55:13.259Z,100297.28
2022-11-25T00:58:15.914Z,100304.25
2022-11-25T01:01:19.133Z,100309.62
2022-11-25T01:04:22.023Z,100312.47
2022-11-25T01:07:25.094Z,100328.31
2022-11-25T01:10:27.863Z,100330.59
2022-11-25T01:13:30.920Z,100332.28
2022-11-25T01:16:33.576Z,100329.88
2022-11-25T01:19:40.601Z,100331.59
2022-11-25T01:22:43.432Z,100337.09
2022-11-25T01:25:46.576Z,100329.66
2022-11-25T01:28:52.889Z,100331.13
2022-11-25T01:31:56.813Z,100335.06
2022-11-25T01:34:59.573Z,100332.78
2022-11-25T01:38:02.629Z,100333.28
2022-11-25T01:41:10.691Z,100333.53
2022-11-25T01:44:22.406Z,100329.34
2022-11-25T01:47:25.789Z,100345.00
2022-11-25T01:50:30.415Z,100339.09
2022-11-25T01:53:33.333Z,100346.59
2022-11-25T01:56:46.899Z,100345.28
2022-11-25T01:59:52.901Z,100341.72
2022-11-25T02:02:58.079Z,100331.97
2022-11-25T02:06:20.136Z,100335.25
2022-11-25T02:09:23.322Z,100336.59
2022-11-25T02:12:27.508Z,100335.06
2022-11-25T02:15:35.326Z,100332.13
2022-11-25T02:18:39.703Z,100337.19
2022-11-25T02:21:49.782Z,100347.84
2022-11-25T02:24:58.273Z,100347.34
2022-11-25T02:28:13.525Z,100350.59
2022-11-25T02:31:23.681Z,100356.66
2022-11-25T02:34:26.890Z,100352.22
2022-11-25T02:37:29.711Z,100353.66
2022-11-25T02:40:37.456Z,100355.09
2022-11-25T02:43:40.453Z,100354.47
2022-11-25T02:46:43.408Z,100355.78
2022-11-25T02:49:46.211Z,100352.06
2022-11-25T02:52:49.285Z,100351.84
2022-11-25T02:55:52.636Z,100351.25
2022-11-25T02:58:55.893Z,100355.78
2022-11-25T03:02:00.331Z,100353.62
2022-11-25T03:05:03.932Z,100350.75
2022-11-25T03:08:07.409Z,100340.84
2022-11-25T03:11:12.861Z,100354.34
2022-11-25T03:14:15.582Z,100355.50
2022-11-25T03:17:18.550Z,100361.00
2022-11-25T03:20:21.346Z,100361.41
2022-11-25T03:23:25.226Z,100363.84
2022-11-25T03:26:29.172Z,100366.97
2022-11-25T03:29:32.727Z,100368.87
2022-11-25T03:32:36.341Z,100379.31
2022-11-25T03:35:39.377Z,100373.31
2022-11-25T03:38:42.124Z,100372.00
2022-11-25T03:41:45.115Z,100379.94
2022-11-25T03:44:48.600Z,100382.19
2022-11-25T03:47:51.735Z,100389.13
2022-11-25T03:50:54.721Z,100398.66
2022-11-25T03:53:58.939Z,100399.37
2022-11-25T03:57:01.891Z,100406.69
2022-11-25T04:00:06.212Z,100417.63
2022-11-25T04:03:20.364Z,100413.87
2022-11-25T04:06:24.091Z,100412.12
2022-11-25T04:09:27.076Z,100421.69
2022-11-25T04:12:49.229Z,100413.28
2022-11-25T04:15:52.740Z,100421.59
2022-11-25T04:18:56.486Z,100416.97
2022-11-25T04:22:01.178Z,100414.69
2022-11-25T04:25:10.255Z,100412.88
2022-11-25T04:28:13.117Z,100422.16
2022-11-25T04:31:16.622Z,100423.41
2022-11-25T04:34:19.556Z,100428.72
2022-11-25T04:37:23.429Z,100430.19
2022-11-25T04:40:28.810Z,100432.47
2022-11-25T04:43:32.843Z,100428.62
2022-11-25T04:46:42.156Z,100428.25
2022-11-25T04:49:45.401Z,100438.19
2022-11-25T04:52:48.239Z,100436.16
2022-11-25T04:55:51.491Z,100449.94
2022-11-25T04:59:13.943Z,100443.09
2022-11-25T05:02:22.718Z,100441.28
2022-11-25T05:05:27.396Z,100444.31
2022-11-25T05:08:32.100Z,100446.31
2022-11-25T05:11:34.946Z,100448.53
2022-11-25T05:14:39.139Z,100444.75
2022-11-25T05:17:42.185Z,100451.59
2022-11-25T05:20:48.775Z,100456.72
2022-11-25T05:23:55.974Z,100467.25
2022-11-25T05:26:59.209Z,100470.78
2022-11-25T05:30:02.174Z,100475.59
2022-11-25T05:33:06.252Z,100486.28
2022-11-25T05:36:10.573Z,100496.16
2022-11-25T05:39:15.220Z,100492.34
2022-11-25T05:42:20.681Z,100500.84
2022-11-25T05:45:23.792Z,100509.94
2022-11-25T05:48:26.495Z,100495.84
2022-11-25T05:51:29.852Z,100507.97
2022-11-25T05:54:35.058Z,100508.41
2022-11-25T05:57:38.289Z,100510.28
2022-11-25T06:00:43.088Z,100522.31
2022-11-25T06:03:46.239Z,100529.09
2022-11-25T06:06:48.932Z,100528.69
2022-11-25T06:09:52.021Z,100531.31
2022-11-25T06:12:54.887Z,100535.13
2022-11-25T06:15:58.215Z,100537.59
2022-11-25T06:19:06.834Z,100533.38
2022-11-25T06:22:10.151Z,100531.34
2022-11-25T06:25:12.907Z,100532.34
2022-11-25T06:28:16.638Z,100540.53
2022-11-25T06:31:22.771Z,100544.84
2022-11-25T06:34:27.258Z,100546.09
2022-11-25T06:37:30.020Z,100542.06
2022-11-25T06:40:37.682Z,100540.81
2022-11-25T06:43:40.764Z,100546.59
2022-11-25T06:46:43.751Z,100545.37
2022-11-25T06:49:46.484Z,100544.19
2022-11-25T06:52:49.435Z,100540.47
2022-11-25T06:56:22.199Z,100551.31
2022-11-25T06:59:26.164Z,100556.06
2022-11-25T07:02:29.649Z,100563.47
2022-11-25T07:05:33.695Z,100561.09
2022-11-25T07:08:36.896Z,100564.75
2022-11-25T07:11:40.773Z,100568.53
2022-11-25T07:14:43.497Z,100568.16
2022-11-25T07:17:46.461Z,100562.87
2022-11-25T07:20:49.313Z,100560.56
2022-11-25T07:23:53.137Z,100568.59
2022-11-25T07:26:55.774Z,100560.13
2022-11-25T07:30:29.678Z,100572.16
2022-11-25T07:33:21.527Z,100580.16
2022-11-25T07:36:25.715Z,100581.72
2022-11-25T07:39:28.730Z,100580.94
2022-11-25T07:42:31.831Z,100575.84
2022-11-25T07:45:34.680Z,100584.94
2022-11-25T07:48:40.457Z,100588.16
2022-11-25T07:51:59.838Z,100593.34
2022-11-25T07:55:03.105Z,100589.19
2022-11-25T07:58:05.802Z,100601.78
2022-11-25T08:01:11.131Z,100599.78
2022-11-25T08:04:19.834Z,100599.28
2022-11-25T08:07:23.331Z,100607.41
2022-11-25T08:10:26.643Z,100614.75
2022-11-25T08:13:29.455Z,100616.63
2022-11-25T08:16:32.975Z,100617.25
2022-11-25T08:19:37.013Z,100612.56
2022-11-25T08:22:40.274Z,100612.72
2022-11-25T08:25:48.969Z,100616.56
2022-11-25T08:28:54.668Z,100612.84
2022-11-25T08:31:58.538Z,100623.87
2022-11-25T08:35:01.442Z,100620.22
2022-11-25T08:38:09.080Z,100624.63
2022-11-25T08:41:14.408Z,100626.38
2022-11-25T08:44:17.528Z,100623.69
2022-11-25T08:47:20.622Z,100632.00
2022-11-25T08:50:25.371Z,100628.69
2022-11-25T08:53:28.407Z,100631.34
2022-11-25T08:56:31.186Z,100622.75
2022-11-25T08:59:34.961Z,100626.47
2022-11-25T09:02:38.133Z,100632.22
2022-11-25T09:05:43.061Z,100629.72
2022-11-25T09:08:46.599Z,100633.97
2022-11-25T09:11:49.506Z,100625.75
2022-11-25T09:14:52.255Z,100635.16
2022-11-25T09:18:04.221Z,100639.03
2022-11-25T09:21:10.784Z,100632.25
2022-11-25T09:24:14.031Z,100633.37
2022-11-25T09:27:16.587Z,100628.06
2022-11-25T09:30:19.765Z,100630.97
2022-11-25T09:33:23.240Z,100635.28
2022-11-25T09:36:26.185Z,100633.75
2022-11-25T09:39:30.584Z,100633.94
2022-11-25T09:43:08.632Z,100628.13
2022-11-25T09:46:42.356Z,100632.12
2022-11-25T09:50:14.146Z,100623.09
2022-11-25T09:53:47.916Z,100629.00
2022-11-25T09:57:17.640Z,100622.31
2022-11-25T10:00:21.241Z,100629.78
2022-11-25T10:03:39.583Z,100631.91
2022-11-25T10:06:55.350Z,100635.62
2022-11-25T10:10:01.784Z,100635.75
2022-11-25T10:13:10.519Z,100639.91
2022-11-25T10:16:36.513Z,100632.97
2022-11-25T10:19:58.939Z,100636.72
2022-11-25T10:23:13.119Z,100629.50
2022-11-25T10:26:20.062Z,100648.91
2022-11-25T10:29:27.636Z,100631.13
2022-11-25T10:32:40.838Z,100634.22
2022-11-25T10:35:57.912Z,100638.78
2022-11-25T10:39:13.517Z,100640.94
2022-11-25T10:42:22.143Z,100642.91
2022-11-25T10:45:30.575Z,100632.19
2022-11-25T10:48:51.605Z,100631.41
2022-11-25T10:51:54.917Z,100642.56
2022-11-25T10:55:09.643Z,100640.59
2022-11-25T10:58:35.861Z,100633.72
2022-11-25T11:01:39.031Z,100641.16
2022-11-25T11:05:00.286Z,100633.56
2022-11-25T11:08:18.280Z,100635.06
2022-11-25T11:11:23.465Z,100630.53
2022-11-25T11:14:29.978Z,100623.41
2022-11-25T11:17:37.044Z,100624.44
2022-11-25T11:20:47.382Z,100625.53
2022-11-25T11:23:55.527Z,100636.44
2022-11-25T11:27:05.082Z,100635.38
2022-11-25T11:30:09.232Z,100626.56
2022-11-25T11:33:34.127Z,100637.75
2022-11-25T11:36:36.832Z,100633.87
2022-11-25T11:39:48.833Z,100631.91
2022-11-25T11:43:20.653Z,100622.25
2022-11-25T11:46:52.414Z,100631.34
2022-11-25T11:50:13.254Z,100633.53
2022-11-25T11:53:37.532Z,100636.44
2022-11-25T11:56:44.379Z,100623.13
2022-11-25T11:59:55.444Z,100631.34
2022-11-25T12:03:20.048Z,100623.91
2022-11-25T12:06:28.172Z,100618.59
2022-11-25T12:09:36.290Z,100620.16
2022-11-25T12:12:45.571Z,100603.69
2022-11-25T12:16:01.782Z,100617.47
2022-11-25T12:19:21.120Z,100606.34
2022-11-25T12:22:48.654Z,100601.56
2022-11-25T12:25:58.813Z,100598.34
2022-11-25T12:29:09.304Z,100606.00
2022-11-25T12:32:21.498Z,100603.59
2022-11-25T12:35:43.252Z,100594.62
2022-11-25T12:38:56.896Z,100599.41
2022-11-25T12:42:02.376Z,100599.91
2022-11-25T12:45:15.337Z,100595.72
2022-11-25T12:48:21.564Z,100595.12
2022-11-25T12:51:37.511Z,100594.03
2022-11-25T12:55:03.445Z,100594.06
2022-11-25T12:58:24.660Z,100598.88
2022-11-25T13:01:59.988Z,100591.06
2022-11-25T13:05:40.996Z,100593.22
2022-11-25T13:09:11.863Z,100596.75
2022-11-25T13:12:19.323Z,100594.34
2022-11-25T13:15:41.955Z,100593.56
2022-11-25T13:18:47.186Z,100596.78
2022-11-25T13:22:02.955Z,100612.16
2022-11-25T13:25:24.748Z,100608.19
2022-11-25T13:28:37.727Z,100605.00
2022-11-25T13:31:59.964Z,100607.91
2022-11-25T13:35:21.723Z,100611.13
2022-11-25T13:38:30.689Z,100603.44
2022-11-25T13:41:39.601Z,100607.97
2022-11-25T13:44:53.072Z,100600.75
2022-11-25T13:48:04.093Z,100609.53
2022-11-25T13:51:22.807Z,100606.87
2022-11-25T13:54:33.113Z,100611.16
2022-11-25T13:57:40.015Z,100607.94
2022-11-25T14:00:57.945Z,100618.06
2022-11-25T14:04:05.682Z,100623.13
2022-11-25T14:07:30.297Z,100621.25
2022-11-25T14:10:51.858Z,100627.13
2022-11-25T14:14:16.244Z,100632.19
2022-11-25T14:17:27.170Z,100641.50
2022-11-25T14:20:44.373Z,100632.41
2022-11-25T14:23:52.403Z,100635.06
2022-11-25T14:26:57.529Z,100631.03
2022-11-25T14:30:12.369Z,100637.94
2022-11-25T14:33:20.186Z,100638.91
2022-11-25T14:36:29.299Z,100640.44
2022-11-25T14:39:42.861Z,100640.59
2022-11-25T14:42:50.230Z,100639.41
2022-11-25T14:46:16.944Z,100648.94
2022-11-25T14:52:47.881Z,100648.31
2022-11-25T14:55:51.213Z,100649.50
2022-11-25T14:58:55.978Z,100650.91
2022-11-25T15:01:58.916Z,100648.41
2022-11-25T15:05:10.719Z,100654.69
2022-11-25T15:08:16.153Z,100645.03
2022-11-25T15:11:21.094Z,100649.47
2022-11-25T15:14:28.147Z,100650.66
2022-11-25T15:17:33.180Z,100657.34
2022-11-25T15:20:36.313Z,100660.09
2022-11-25T15:23:40.678Z,100653.81
2022-11-25T15:26:52.000Z,100649.31
2022-11-25T15:29:57.292Z,100640.31
2022-11-25T15:33:01.378Z,100647.72
2022-11-25T15:36:04.771Z,100643.19
2022-11-25T15:39:25.287Z,100646.94
2022-11-25T15:42:28.448Z,100648.88
2022-11-25T15:45:45.854Z,100645.09
2022-11-25T15:48:52.023Z,100643.63
2022-11-25T15:52:17.530Z,100647.69
2022-11-25T15:55:40.049Z,100650.03
2022-11-25T15:58:43.081Z,100653.87
2022-11-25T16:01:45.949Z,100653.78
2022-11-25T16:04:48.844Z,100652.44
2022-11-25T16:07:51.633Z,100663.97
2022-11-25T16:10:59.277Z,100667.44
2022-11-25T16:14:26.341Z,100668.97
2022-11-25T16:17:29.230Z,100676.66
2022-11-25T16:20:32.091Z,100664.28
2022-11-25T16:23:41.882Z,100676.22
2022-11-25T16:27:25.579Z,100674.25
2022-11-25T16:30:28.753Z,100676.69
2022-11-25T16:33:31.561Z,100675.06
2022-11-25T16:36:34.533Z,100682.84
2022-11-25T16:39:40.767Z,100680.06
2022-11-25T16:42:49.407Z,100687.28
2022-11-25T16:45:54.409Z,100684.03
2022-11-25T16:48:57.701Z,100685.09
2022-11-25T16:52:00.569Z,100680.41
2022-11-25T16:55:03.586Z,100688.91
2022-11-25T16:58:29.068Z,100696.41
2022-11-25T17:01:34.496Z,100689.66
2022-11-25T17:04:37.137Z,100689.22
2022-11-25T17:07:40.139Z,100693.63
2022-11-25T17:10:44.540Z,100699.38
2022-11-25T17:13:50.939Z,100696.22
2022-11-25T17:16:53.842Z,100705.66
2022-11-25T17:19:56.901Z,100708.56
2022-11-25T17:23:00.279Z,100716.81
2022-11-25T17:26:03.371Z,100713.25
2022-11-25T17:29:11.506Z,100706.41
2022-11-25T17:32:16.169Z,100706.97
2022-11-25T17:35:20.812Z,100710.69
2022-11-25T17:38:23.962Z,100708.09
2022-11-25T17:41:29.313Z,100710.41
2022-11-25T17:44:32.594Z,100709.72
2022-11-25T17:47:35.282Z,100708.91
2022-11-25T17:50:38.705Z,100706.31
2022-11-25T17:53:41.879Z,100712.81
2022-11-25T17:56:50.715Z,100716.69
2022-11-25T17:59:54.877Z,100713.06
2022-11-25T18:02:58.224Z,100717.22
2022-11-25T18:06:24.741Z,100720.41
2022-11-25T18:09:29.909Z,100721.69
2022-11-25T18:12:34.135Z,100720.53
2022-11-25T18:15:38.838Z,100728.94
2022-11-25T18:18:42.481Z,100745.16
2022-11-25T18:21:45.156Z,100730.22
2022-11-25T18:24:48.264Z,100739.34
2022-11-25T18:27:56.243Z,100742.37
2022-11-25T18:31:03.309Z,100746.84
2022-11-25T18:34:14.054Z,100748.66
2022-11-25T18:37:17.543Z,100755.72
2022-11-25T18:40:20.866Z,100758.56
2022-11-25T18:43:26.801Z,100762.63
2022-11-25T18:46:35.431Z,100760.25
2022-11-25T18:49:39.069Z,100759.66
2022-11-25T18:52:42.357Z,100760.84
2022-11-25T18:55:46.217Z,100769.56
2022-11-25T18:58:52.004Z,100761.50
2022-11-25T19:01:55.638Z,100766.97
2022-11-25T19:04:59.023Z,100765.16
2022-11-25T19:08:02.062Z,100769.59
2022-11-25T20:02:53.881Z,100843.50
2022-11-25T20:05:57.220Z,100846.72
2022-11-25T20:09:06.386Z,100857.22
2022-11-25T20:12:21.976Z,100857.50
2022-11-25T20:15:25.982Z,100862.09
2022-11-25T20:18:29.907Z,100860.47
2022-11-25T20:21:37.033Z,100866.12
2022-11-25T20:24:40.075Z,100874.41
2022-11-25T20:27:42.760Z,100882.31
2022-11-25T20:30:47.370Z,100879.88
2022-11-25T20:33:53.139Z,100882.72
2022-11-25T20:36:56.170Z,100889.34
2022-11-25T20:40:01.040Z,100892.81
2022-11-25T20:43:03.972Z,100878.28
2022-11-25T20:46:14.559Z,100881.91
2022-11-25T20:49:29.400Z,100888.16
2022-11-25T20:52:33.705Z,100884.75
2022-11-25T20:55:36.617Z,100894.84
2022-11-25T20:58:39.292Z,100899.50
2022-11-25T21:01:42.340Z,100901.50
2022-11-25T21:04:44.993Z,100885.97
2022-11-25T21:07:49.759Z,100893.38
2022-11-25T21:10:55.753Z,100900.03
2022-11-25T21:13:59.255Z,100902.28
2022-11-25T21:17:01.988Z,100902.25
2022-11-25T21:20:05.463Z,100909.13
2022-11-25T21:23:18.817Z,100904.87
2022-11-25T21:26:25.336Z,100901.66
2022-11-25T21:29:28.894Z,100906.53
2022-11-25T21:32:31.788Z,100904.50
2022-11-25T21:35:35.869Z,100912.53
2022-11-25T21:38:38.894Z,100911.31
2022-11-25T21:41:41.734Z,100908.50
2022-11-25T21:44:45.607Z,100915.34
2022-11-25T21:47:48.387Z,100907.19
2022-11-25T21:50:51.403Z,100904.47
2022-11-25T21:53:54.535Z,100910.75
2022-11-25T21:56:58.761Z,100919.19
2022-11-25T22:00:01.702Z,100913.34
